createdAt,value
2019-01-22T00:00:13.630Z,-3.20
2019-01-22T00:02:42.598Z,-3.30
2019-01-22T00:05:12.400Z,-3.30
2019-01-22T00:07:41.445Z,-3.30
2019-01-22T00:10:10.658Z,-3.30
2019-01-22T00:12:39.675Z,-3.30
2019-01-22T00:15:09.762Z,-3.30
2019-01-22T00:17:38.956Z,-3.40
2019-01-22T00:20:08.537Z,-3.50
2019-01-22T00:22:37.357Z,-3.50
2019-01-22T00:25:07.383Z,-3.60
2019-01-22T00:27:36.427Z,-3.60
2019-01-22T00:30:08.789Z,-3.50
2019-01-22T00:32:37.800Z,-3.60
2019-01-22T00:35:07.087Z,-3.60
2019-01-22T00:37:35.927Z,-3.60
2019-01-22T00:40:06.616Z,-3.60
2019-01-22T00:42:35.985Z,-3.60
2019-01-22T00:45:05.636Z,-3.60
2019-01-22T00:47:34.644Z,-3.50
2019-01-22T00:50:04.707Z,-3.50
2019-01-22T00:52:33.608Z,-3.50
2019-01-22T00:55:02.880Z,-3.50
2019-01-22T00:57:32.080Z,-3.50
2019-01-22T01:00:01.451Z,-3.50
2019-01-22T01:02:30.348Z,-3.50
2019-01-22T01:04:59.252Z,-3.50
2019-01-22T01:07:28.048Z,-3.50
2019-01-22T01:09:57.198Z,-3.50
2019-01-22T01:12:26.192Z,-3.50
2019-01-22T01:14:55.183Z,-3.60
2019-01-22T01:17:24.160Z,-3.60
2019-01-22T01:19:53.012Z,-3.60
2019-01-22T01:22:21.986Z,-3.60
2019-01-22T01:24:51.236Z,-3.60
2019-01-22T01:27:20.228Z,-3.60
2019-01-22T01:29:49.296Z,-3.70
2019-01-22T01:32:18.208Z,-3.80
2019-01-22T01:34:47.093Z,-3.70
2019-01-22T01:37:16.097Z,-3.80
2019-01-22T01:39:45.642Z,-3.80
2019-01-22T01:42:14.650Z,-3.90
2019-01-22T01:44:43.472Z,-3.90
2019-01-22T01:47:12.292Z,-3.90
2019-01-22T01:49:41.504Z,-3.90
2019-01-22T01:52:10.531Z,-4.10
2019-01-22T01:54:39.508Z,-4.20
2019-01-22T01:57:08.379Z,-4.30
2019-01-22T01:59:37.451Z,-4.20
2019-01-22T02:02:06.468Z,-4.20
2019-01-22T02:04:35.507Z,-4.20
2019-01-22T02:07:05.196Z,-4.30
2019-01-22T02:09:34.104Z,-4.30
2019-01-22T02:12:02.983Z,-4.20
2019-01-22T02:14:37.071Z,-4.20
2019-01-22T02:17:21.388Z,-4.20
2019-01-22T02:20:27.370Z,-4.10
2019-01-22T02:23:36.036Z,-4.10
2019-01-22T02:27:03.146Z,-4.10
2019-01-22T02:29:49.153Z,-4.20
2019-01-22T02:32:49.914Z,-4.20
2019-01-22T02:35:29.583Z,-4.10
2019-01-22T02:38:44.652Z,-4.10
2019-01-22T02:41:47.920Z,-4.10
2019-01-22T02:45:03.967Z,-4.10
2019-01-22T02:48:14.335Z,-4.10
2019-01-22T02:51:36.660Z,-4.20
2019-01-22T02:54:36.111Z,-4.20
2019-01-22T02:57:28.517Z,-4.20
2019-01-22T03:00:47.516Z,-4.30
2019-01-22T03:04:08.552Z,-4.40
2019-01-22T03:07:11.276Z,-4.40
2019-01-22T03:10:13.062Z,-4.50
2019-01-22T03:13:01.803Z,-4.60
2019-01-22T03:16:15.409Z,-4.60
2019-01-22T03:19:19.291Z,-4.60
2019-01-22T03:22:19.747Z,-4.60
2019-01-22T03:25:29.929Z,-4.60
2019-01-22T03:28:24.621Z,-4.70
2019-01-22T03:31:36.633Z,-4.80
2019-01-22T03:34:37.565Z,-4.80
2019-01-22T03:37:25.585Z,-4.80
2019-01-22T03:40:15.980Z,-4.60
2019-01-22T03:43:30.168Z,-4.60
2019-01-22T03:46:25.260Z,-4.60
2019-01-22T03:49:14.863Z,-4.50
2019-01-22T03:51:57.073Z,-4.50
2019-01-22T03:55:07.377Z,-4.50
2019-01-22T03:57:44.469Z,-4.60
2019-01-22T04:00:27.232Z,-4.60
2019-01-22T04:02:56.828Z,-4.80
2019-01-22T04:05:25.732Z,-4.90
2019-01-22T04:07:54.528Z,-5.00
2019-01-22T04:11:06.024Z,-5.00
2019-01-22T04:13:35.039Z,-5.10
2019-01-22T04:16:04.640Z,-5.00
2019-01-22T04:18:33.641Z,-5.00
2019-01-22T04:21:03.323Z,-5.10
2019-01-22T04:23:44.545Z,-5.20
2019-01-22T04:26:49.393Z,-5.30
2019-01-22T04:29:46.837Z,-5.40
2019-01-22T04:32:23.980Z,-5.50
2019-01-22T04:35:26.521Z,-5.50
2019-01-22T04:38:35.749Z,-5.50
2019-01-22T04:41:33.596Z,-5.60
2019-01-22T04:44:26.387Z,-5.70
2019-01-22T04:47:24.464Z,-5.70
2019-01-22T04:50:32.818Z,-5.80
2019-01-22T04:53:33.969Z,-5.80
2019-01-22T04:56:37.078Z,-5.70
2019-01-22T04:59:55.179Z,-5.70
2019-01-22T05:03:02.392Z,-5.60
2019-01-22T05:06:13.305Z,-5.60
2019-01-22T05:09:32.476Z,-5.60
2019-01-22T05:12:26.094Z,-5.60
2019-01-22T05:15:41.309Z,-5.50
2019-01-22T05:18:34.291Z,-5.50
2019-01-22T05:21:47.162Z,-5.40
2019-01-22T05:24:54.181Z,-5.40
2019-01-22T05:27:35.840Z,-5.40
2019-01-22T05:30:43.153Z,-5.30
2019-01-22T05:33:31.648Z,-5.30
2019-01-22T05:36:32.260Z,-5.20
2019-01-22T05:39:31.284Z,-5.30
2019-01-22T05:42:36.564Z,-5.30
2019-01-22T05:45:44.235Z,-5.30
2019-01-22T05:48:44.187Z,-5.20
2019-01-22T05:51:28.308Z,-5.20
2019-01-22T05:54:31.211Z,-5.20
2019-01-22T05:57:23.053Z,-5.10
2019-01-22T06:00:41.872Z,-5.00
2019-01-22T06:03:48.488Z,-5.00
2019-01-22T06:06:54.344Z,-4.90
2019-01-22T06:09:44.508Z,-4.90
2019-01-22T06:12:52.436Z,-4.80
2019-01-22T06:16:01.616Z,-4.70
2019-01-22T06:19:03.708Z,-4.60
2019-01-22T06:22:13.136Z,-4.50
2019-01-22T06:25:32.361Z,-4.40
2019-01-22T06:28:20.326Z,-4.40
2019-01-22T06:31:22.673Z,-4.30
2019-01-22T06:34:41.881Z,-4.30
2019-01-22T06:37:25.865Z,-4.20
2019-01-22T06:40:15.905Z,-4.10
2019-01-22T06:43:13.420Z,-4.10
2019-01-22T06:45:53.020Z,-4.10
2019-01-22T06:48:57.957Z,-4.00
2019-01-22T06:52:06.683Z,-3.90
2019-01-22T06:55:15.182Z,-3.90
2019-01-22T06:58:38.551Z,-3.90
2019-01-22T07:01:35.238Z,-3.80
2019-01-22T07:04:32.618Z,-3.90
2019-01-22T07:07:28.636Z,-3.90
2019-01-22T07:10:38.861Z,-3.90
2019-01-22T07:13:20.960Z,-3.80
2019-01-22T07:16:46.285Z,-3.80
2019-01-22T07:19:42.567Z,-3.80
2019-01-22T07:22:47.585Z,-3.80
2019-01-22T07:25:46.036Z,-3.80
2019-01-22T07:28:46.668Z,-3.80
2019-01-22T07:31:36.932Z,-3.80
2019-01-22T07:34:41.759Z,-3.70
2019-01-22T07:37:34.132Z,-3.60
2019-01-22T07:40:24.108Z,-3.60
2019-01-22T07:43:25.125Z,-3.60
2019-01-22T07:46:27.704Z,-3.60
2019-01-22T07:49:02.533Z,-3.50
2019-01-22T07:52:01.502Z,-3.50
2019-01-22T07:54:53.550Z,-3.50
2019-01-22T07:57:56.648Z,-3.60
2019-01-22T08:00:39.576Z,-3.60
2019-01-22T08:03:56.264Z,-3.60
2019-01-22T08:06:46.828Z,-3.60
2019-01-22T08:09:52.177Z,-3.60
2019-01-22T08:12:28.617Z,-3.60
2019-01-22T08:15:41.496Z,-3.60
2019-01-22T08:18:18.929Z,-3.50
2019-01-22T08:21:23.453Z,-3.40
2019-01-22T08:24:45.721Z,-3.40
2019-01-22T08:27:39.768Z,-3.40
2019-01-22T08:30:55.696Z,-3.30
2019-01-22T08:33:50.800Z,-3.20
2019-01-22T08:36:56.984Z,-3.20
2019-01-22T08:39:55.704Z,-3.10
2019-01-22T08:42:39.764Z,-3.00
2019-01-22T08:45:45.788Z,-3.00
2019-01-22T08:48:49.415Z,-2.90
2019-01-22T08:52:06.247Z,-2.80
2019-01-22T08:55:20.168Z,-2.80
2019-01-22T08:58:15.388Z,-2.70
2019-01-22T09:00:55.716Z,-2.70
2019-01-22T09:03:38.349Z,-2.60
2019-01-22T09:06:19.889Z,-2.70
2019-01-22T09:09:14.301Z,-2.60
2019-01-22T09:12:23.109Z,-2.60
2019-01-22T09:15:23.360Z,-2.50
2019-01-22T09:18:51.588Z,-2.50
2019-01-22T09:21:55.292Z,-2.40
2019-01-22T09:24:52.420Z,-2.40
2019-01-22T09:28:07.536Z,-2.30
2019-01-22T09:31:11.492Z,-2.20
2019-01-22T09:33:57.380Z,-2.20
2019-01-22T09:37:00.770Z,-2.10
2019-01-22T09:39:29.760Z,-2.00
2019-01-22T09:41:58.676Z,-2.00
2019-01-22T09:44:27.845Z,-2.00
2019-01-22T09:46:56.757Z,-2.00
2019-01-22T09:49:25.685Z,-2.00
2019-01-22T09:51:54.676Z,-2.00
2019-01-22T09:54:23.596Z,-2.00
2019-01-22T09:56:52.399Z,-1.90
2019-01-22T09:59:21.392Z,-1.90
2019-01-22T10:01:50.264Z,-1.90
2019-01-22T10:04:19.184Z,-1.80
2019-01-22T10:06:48.061Z,-1.80
2019-01-22T10:09:17.056Z,-1.70
2019-01-22T10:11:46.034Z,-1.80
2019-01-22T10:14:15.032Z,-1.70
2019-01-22T10:16:44.052Z,-1.80
2019-01-22T10:19:13.076Z,-1.80
2019-01-22T10:21:42.240Z,-1.70
2019-01-22T10:24:11.212Z,-1.80
2019-01-22T10:26:40.108Z,-1.70
2019-01-22T10:29:09.088Z,-1.80
2019-01-22T10:31:37.956Z,-1.80
2019-01-22T10:34:06.863Z,-1.80
2019-01-22T10:36:35.848Z,-1.70
2019-01-22T10:39:07.795Z,-1.70
2019-01-22T10:41:36.702Z,-1.80
2019-01-22T10:44:06.110Z,-1.80
2019-01-22T10:46:34.996Z,-1.70
2019-01-22T10:49:04.140Z,-1.80
2019-01-22T10:51:33.224Z,-1.70
2019-01-22T10:54:02.042Z,-1.80
2019-01-22T10:56:30.928Z,-1.80
2019-01-22T10:58:59.888Z,-1.80
2019-01-22T11:01:28.880Z,-1.80
2019-01-22T11:03:58.157Z,-1.70
2019-01-22T11:06:27.036Z,-1.70
2019-01-22T11:08:56.058Z,-1.70
2019-01-22T11:11:25.004Z,-1.60
2019-01-22T11:13:53.868Z,-1.60
2019-01-22T11:16:22.864Z,-1.60
2019-01-22T11:18:51.885Z,-1.50
2019-01-22T11:21:20.884Z,-1.50
2019-01-22T11:23:49.799Z,-1.40
2019-01-22T11:26:18.721Z,-1.30
2019-01-22T11:28:47.738Z,-1.30
2019-01-22T11:31:16.584Z,-1.20
2019-01-22T11:33:45.416Z,-1.20
2019-01-22T11:36:14.360Z,-1.20
2019-01-22T11:38:43.224Z,-1.20
2019-01-22T11:41:12.799Z,-1.20
2019-01-22T11:43:41.815Z,-1.10
2019-01-22T11:46:11.024Z,-1.10
2019-01-22T11:48:39.827Z,-1.10
2019-01-22T11:51:08.733Z,-1.10
2019-01-22T11:53:37.768Z,-1.00
2019-01-22T11:56:06.660Z,-1.00
2019-01-22T11:58:35.464Z,-1.00
2019-01-22T12:01:05.176Z,-1.10
2019-01-22T12:03:34.145Z,-1.00
2019-01-22T12:06:03.173Z,-1.10
2019-01-22T12:08:32.188Z,-1.00
2019-01-22T12:11:01.428Z,-1.00
2019-01-22T12:13:30.636Z,-1.00
2019-01-22T12:15:59.536Z,-1.00
2019-01-22T12:18:28.543Z,-1.00
2019-01-22T12:20:57.753Z,-1.00
2019-01-22T12:23:26.645Z,-0.90
2019-01-22T12:25:57.409Z,-0.90
2019-01-22T12:28:26.347Z,-0.90
2019-01-22T12:30:55.328Z,-0.90
2019-01-22T12:33:24.348Z,-0.90
2019-01-22T12:35:53.227Z,-0.80
2019-01-22T12:38:22.399Z,-0.80
2019-01-22T12:40:51.287Z,-0.70
2019-01-22T12:43:20.096Z,-0.70
2019-01-22T12:45:48.888Z,-0.70
2019-01-22T12:48:17.787Z,-0.70
2019-01-22T12:50:46.773Z,-0.70
2019-01-22T12:53:15.636Z,-0.70
2019-01-22T12:55:44.949Z,-0.60
2019-01-22T12:58:13.760Z,-0.70
2019-01-22T13:00:42.759Z,-0.70
2019-01-22T13:03:11.740Z,-0.60
2019-01-22T13:05:56.504Z,-0.60
2019-01-22T13:08:25.319Z,-0.60
2019-01-22T13:10:54.148Z,-0.60
2019-01-22T13:13:23.156Z,-0.60
2019-01-22T13:15:52.144Z,-0.50
2019-01-22T13:18:21.072Z,-0.50
2019-01-22T13:20:50.076Z,-0.50
2019-01-22T13:23:19.012Z,-0.50
2019-01-22T13:25:47.895Z,-0.50
2019-01-22T13:28:16.747Z,-0.40
2019-01-22T13:30:45.728Z,-0.40
2019-01-22T13:33:14.652Z,-0.40
2019-01-22T13:35:43.459Z,-0.40
2019-01-22T13:38:12.396Z,-0.30
2019-01-22T13:40:41.415Z,-0.20
2019-01-22T13:43:10.462Z,-0.20
2019-01-22T13:45:39.665Z,-0.10
2019-01-22T13:48:12.424Z,-0.20
2019-01-22T13:50:41.336Z,-0.20
2019-01-22T13:53:10.320Z,-0.30
2019-01-22T13:55:39.897Z,-0.30
2019-01-22T13:58:09.059Z,-0.30
2019-01-22T14:00:38.096Z,-0.30
2019-01-22T14:03:07.993Z,-0.30
2019-01-22T14:05:36.971Z,-0.30
2019-01-22T14:08:06.202Z,-0.20
2019-01-22T14:10:35.083Z,-0.20
2019-01-22T14:13:04.848Z,-0.20
2019-01-22T14:15:39.148Z,-0.20
2019-01-22T14:18:09.460Z,-0.20
2019-01-22T14:20:38.290Z,-0.10
2019-01-22T14:23:07.257Z,-0.10
2019-01-22T14:25:36.248Z,-0.10
2019-01-22T14:28:05.832Z,-0.10
2019-01-22T14:30:37.019Z,-0.20
2019-01-22T14:33:06.535Z,-0.10
2019-01-22T14:35:35.536Z,-0.10
2019-01-22T14:38:05.254Z,-0.10
2019-01-22T14:40:34.433Z,-0.10
2019-01-22T14:43:03.664Z,0.00
2019-01-22T14:45:32.641Z,0.00
2019-01-22T14:48:01.437Z,0.00
2019-01-22T14:50:31.441Z,0.00
2019-01-22T14:53:00.411Z,-0.10
2019-01-22T14:55:29.759Z,0.00
2019-01-22T14:57:58.791Z,0.00
2019-01-22T15:00:28.906Z,0.00
2019-01-22T15:02:58.768Z,0.10
2019-01-22T15:05:28.477Z,0.10
2019-01-22T15:07:58.872Z,0.10
2019-01-22T15:10:27.987Z,0.10
2019-01-22T15:13:01.265Z,0.20
2019-01-22T15:15:30.284Z,0.20
2019-01-22T15:17:59.178Z,0.20
2019-01-22T15:20:28.456Z,0.10
2019-01-22T15:22:57.344Z,0.20
2019-01-22T15:25:26.366Z,0.20
2019-01-22T15:27:55.344Z,0.20
2019-01-22T15:30:35.105Z,0.20
2019-01-22T15:33:04.529Z,0.30
2019-01-22T15:35:33.512Z,0.40
2019-01-22T15:38:02.405Z,0.30
2019-01-22T15:40:31.707Z,0.30
2019-01-22T15:43:00.684Z,0.30
2019-01-22T15:45:29.946Z,0.30
2019-01-22T15:47:59.114Z,0.40
2019-01-22T15:50:28.120Z,0.40
2019-01-22T15:52:57.107Z,0.40
2019-01-22T15:55:36.181Z,0.40
2019-01-22T15:58:06.409Z,0.40
2019-01-22T16:00:35.476Z,0.50
2019-01-22T16:03:05.066Z,0.50
2019-01-22T16:05:34.372Z,0.40
2019-01-22T16:08:03.408Z,0.50
2019-01-22T16:10:32.376Z,0.50
2019-01-22T16:13:01.308Z,0.50
2019-01-22T16:15:30.360Z,0.40
2019-01-22T16:17:59.307Z,0.50
2019-01-22T16:20:28.564Z,0.50
2019-01-22T16:22:57.430Z,0.50
2019-01-22T16:25:26.553Z,0.50
2019-01-22T16:27:55.443Z,0.50
2019-01-22T16:30:26.084Z,0.50
2019-01-22T16:32:55.011Z,0.60
2019-01-22T16:35:25.624Z,0.50
2019-01-22T16:37:55.112Z,0.50
2019-01-22T16:40:23.989Z,0.50
2019-01-22T16:42:52.993Z,0.50
2019-01-22T16:45:27.704Z,0.50
2019-01-22T16:47:56.656Z,0.60
2019-01-22T16:50:25.743Z,0.50
2019-01-22T16:52:54.675Z,0.50
2019-01-22T16:55:27.018Z,0.50
2019-01-22T16:57:56.136Z,0.50
2019-01-22T17:00:27.288Z,0.50
2019-01-22T17:02:56.399Z,0.50
2019-01-22T17:05:26.235Z,0.50
2019-01-22T17:07:55.236Z,0.50
2019-01-22T17:10:24.184Z,0.40
2019-01-22T17:12:53.092Z,0.40
2019-01-22T17:15:22.240Z,0.40
2019-01-22T17:17:51.205Z,0.50
2019-01-22T17:20:25.607Z,0.50
2019-01-22T17:22:54.813Z,0.50
2019-01-22T17:25:25.760Z,0.50
2019-01-22T17:27:54.547Z,0.50
2019-01-22T17:30:23.709Z,0.40
2019-01-22T17:33:11.701Z,0.80
2019-01-22T17:35:44.261Z,0.60
2019-01-22T17:38:13.196Z,0.50
2019-01-22T17:40:42.058Z,0.50
2019-01-22T17:43:11.036Z,0.40
2019-01-22T17:45:40.005Z,0.40
2019-01-22T17:48:08.984Z,0.40
2019-01-22T17:50:37.772Z,0.30
2019-01-22T17:53:07.619Z,0.40
2019-01-22T17:55:36.853Z,0.40
2019-01-22T17:58:06.052Z,0.40
2019-01-22T18:00:36.707Z,0.40
2019-01-22T18:03:05.620Z,0.40
2019-01-22T18:05:34.628Z,0.40
2019-01-22T18:08:03.891Z,0.50
2019-01-22T18:10:33.064Z,0.50
2019-01-22T18:13:01.949Z,0.50
2019-01-22T18:15:30.749Z,0.60
2019-01-22T18:17:59.660Z,0.60
2019-01-22T18:20:28.548Z,0.60
2019-01-22T18:22:57.464Z,0.60
2019-01-22T18:25:26.510Z,0.60
2019-01-22T18:27:55.439Z,0.50
2019-01-22T18:30:24.509Z,0.50
2019-01-22T18:32:53.655Z,0.50
2019-01-22T18:35:25.488Z,0.60
2019-01-22T18:37:54.517Z,0.60
2019-01-22T18:40:23.592Z,0.60
2019-01-22T18:42:52.576Z,0.60
2019-01-22T18:45:21.842Z,0.60
2019-01-22T18:47:50.792Z,0.60
2019-01-22T18:50:21.428Z,0.60
2019-01-22T18:52:50.372Z,0.60
2019-01-22T18:55:19.372Z,0.60
2019-01-22T18:57:48.384Z,0.60
2019-01-22T19:00:19.264Z,0.60
2019-01-22T19:02:48.368Z,0.60
2019-01-22T19:05:17.741Z,0.60
2019-01-22T19:07:47.248Z,0.60
2019-01-22T19:10:24.172Z,0.60
2019-01-22T19:12:53.068Z,0.60
2019-01-22T19:15:22.696Z,0.60
2019-01-22T19:17:52.236Z,0.60
2019-01-22T19:20:21.106Z,0.60
2019-01-22T19:22:50.180Z,0.60
2019-01-22T19:25:22.262Z,0.60
2019-01-22T19:27:51.180Z,0.60
2019-01-22T19:30:22.175Z,0.60
2019-01-22T19:32:51.008Z,0.60
2019-01-22T19:35:19.998Z,0.60
2019-01-22T19:37:49.000Z,0.60
2019-01-22T19:40:18.097Z,0.70
2019-01-22T19:42:47.112Z,0.60
2019-01-22T19:45:18.140Z,0.60
2019-01-22T19:47:47.573Z,0.60
2019-01-22T19:50:17.368Z,0.60
2019-01-22T19:52:46.489Z,0.60
2019-01-22T19:55:15.497Z,0.60
2019-01-22T19:57:44.562Z,0.70
2019-01-22T20:00:20.285Z,0.70
2019-01-22T20:02:49.175Z,0.80
2019-01-22T20:05:18.691Z,0.70
2019-01-22T20:07:47.687Z,0.70
2019-01-22T20:10:16.724Z,0.70
2019-01-22T20:12:45.713Z,0.70
2019-01-22T20:15:15.280Z,0.70
2019-01-22T20:17:44.269Z,0.70
2019-01-22T20:20:16.093Z,0.70
2019-01-22T20:22:45.780Z,0.80
2019-01-22T20:25:15.540Z,0.70
2019-01-22T20:27:48.339Z,0.70
2019-01-22T20:30:18.636Z,0.70
2019-01-22T20:32:47.560Z,0.70
2019-01-22T20:35:16.464Z,0.70
2019-01-22T20:37:45.408Z,0.70
2019-01-22T20:40:14.753Z,0.70
2019-01-22T20:42:43.727Z,0.70
2019-01-22T20:45:15.125Z,0.70
2019-01-22T20:47:44.005Z,0.70
2019-01-22T20:50:19.000Z,0.70
2019-01-22T20:52:44.660Z,0.70
2019-01-22T20:55:15.499Z,0.70
2019-01-22T20:57:44.489Z,0.70
2019-01-22T21:00:16.136Z,0.70
2019-01-22T21:02:45.116Z,0.70
2019-01-22T21:05:19.152Z,0.60
2019-01-22T21:07:48.080Z,0.70
2019-01-22T21:10:19.850Z,0.70
2019-01-22T21:12:49.065Z,0.70
2019-01-22T21:15:18.049Z,0.60
2019-01-22T21:17:47.004Z,0.70
2019-01-22T21:20:16.392Z,0.60
2019-01-22T21:22:45.500Z,0.70
2019-01-22T21:25:16.024Z,0.70
2019-01-22T21:27:45.000Z,0.70
2019-01-22T21:30:19.877Z,0.80
2019-01-22T21:32:49.040Z,0.70
2019-01-22T21:35:17.914Z,0.70
2019-01-22T21:37:47.092Z,0.70
2019-01-22T21:40:17.620Z,0.80
2019-01-22T21:42:46.699Z,0.80
2019-01-22T21:45:16.374Z,0.80
2019-01-22T21:47:45.377Z,0.80
2019-01-22T21:50:15.060Z,0.70
2019-01-22T21:52:44.335Z,0.70
2019-01-22T21:55:15.640Z,0.70
2019-01-22T21:57:44.831Z,0.70
2019-01-22T22:00:16.944Z,0.70
2019-01-22T22:02:45.820Z,0.80
2019-01-22T22:05:15.452Z,0.70
2019-01-22T22:07:44.370Z,0.70
2019-01-22T22:10:15.836Z,0.70
2019-01-22T22:12:44.782Z,0.70
2019-01-22T22:15:15.439Z,0.70
2019-01-22T22:17:44.383Z,0.80
2019-01-22T22:20:14.152Z,0.80
2019-01-22T22:22:43.136Z,0.70
2019-01-22T22:25:13.536Z,0.80
2019-01-22T22:27:42.546Z,0.80
2019-01-22T22:30:15.288Z,0.80
2019-01-22T22:32:44.368Z,0.80
2019-01-22T22:35:13.536Z,0.70
2019-01-22T22:37:42.335Z,0.70
2019-01-22T22:40:12.132Z,0.70
2019-01-22T22:42:41.052Z,0.70
2019-01-22T22:45:13.108Z,0.70
2019-01-22T22:47:42.020Z,0.70
2019-01-22T22:50:14.331Z,0.70
2019-01-22T22:52:43.216Z,0.70
2019-01-22T22:55:12.520Z,0.70
2019-01-22T22:57:41.435Z,0.70
2019-01-22T23:00:22.261Z,0.70
2019-01-22T23:02:51.407Z,0.80
2019-01-22T23:05:20.704Z,0.70
2019-01-22T23:07:49.509Z,0.70
2019-01-22T23:10:18.733Z,0.70
2019-01-22T23:12:47.762Z,0.70
2019-01-22T23:15:16.934Z,0.70
2019-01-22T23:17:45.939Z,0.70
2019-01-22T23:20:15.351Z,0.70
2019-01-22T23:22:44.252Z,0.70
2019-01-22T23:25:13.253Z,0.70
2019-01-22T23:27:42.032Z,0.70
2019-01-22T23:30:11.668Z,0.70
2019-01-22T23:32:40.800Z,0.70
2019-01-22T23:35:09.861Z,0.70
2019-01-22T23:37:39.443Z,0.70
2019-01-22T23:40:09.419Z,0.60
2019-01-22T23:42:38.420Z,0.60
2019-01-22T23:45:09.248Z,0.60
2019-01-22T23:47:38.368Z,0.60
2019-01-22T23:50:07.996Z,0.60
2019-01-22T23:52:37.000Z,0.60
2019-01-22T23:55:06.819Z,0.50
2019-01-22T23:57:35.763Z,0.50
